Eighty Eight, KY (42130)

12:41 PM CDT on April 19, 2015 (GMT -0500)
Scout Reservation | | Change Station
CLOSE
Current Station
Personal Weather Station
Location: Temple Hill, KY
Elevation: 780 ft
Nearby Weather Stations

Elev 780 ft 36.90 °N, 85.88 °W | Updated 30 seconds ago

Overcast
Overcast
69.4 °F
Feels Like 69.4 °F
N
1.8
Wind Variable Wind from SSE
Gusts 5.8 mph

Today
High -- | Low -- °F
--% Chance of Precip.
Yesterday
High -- | Low -- °F
Precip. -- in
6:03 AM 7:21 PM
New Moon, 1% visible
Pressure 29.58 in
Visibility 7.0 miles
Clouds Mostly Cloudy 600 ft
Overcast 1200 ft
Dew Point 66 °F
Humidity 89%
Rainfall 0.29 in
Snow Depth Not available.
UV 3 out of 12
Pollen .60 out of 12
Air Quality Not available.
Flu Activity Local Activity
METAR KGLW 191710Z AUTO 23005KT 7SM RA BKN006 OVC012 19/19 A2958 RMK AO2 P0001 T01920192

More Conditions Fewer Conditions

Pressure 29.58 in
Visibility 7.0 miles
Clouds Mostly Cloudy 600 ft
Overcast 1200 ft
Dew Point 66 °F
Humidity 89%
Rainfall 0.29 in
Snow Depth Not available.
UV 3 out of 12
Pollen .60 out of 12
Air Quality Not available.
Flu Activity Local Activity
METAR KGLW 191710Z AUTO 23005KT 7SM RA BKN006 OVC012 19/19 A2958 RMK AO2 P0001 T01920192

More Conditions Fewer Conditions

10-Day Weather Forecast

Almanac

Astronomy

Apr. 19, 2015 Rise Set
Actual Time
Civil Twilight
Nautical Twilight
Astronomical Twilight
Moon
Length of Visible Light
Length of Day
Tomorrow will be .
, % of the Moon is Illuminated

Today's Extremes

State Highs State Lows

Community

WunderPhotos

Upload Photos

1,814,877 photos uploaded!

WunderBlogs® & News

Nearby

Air Quality

  Air Quality AQ Index Pollutant
Not available.

Snow Depth

Station Depth Elevation

Earthquake Activity

City Distance Mag. Time & Date
Minimum magnitude displayed is 2.5.

Coastal Water Temperatures

Place Temperature

Stations

Nearby Weather Stations

Station Location Temp. Windchill Dew Point Humidity Wind Precip. Elev Updated Type